Terminal Aerodrome Forecast
Issued by NWS Goodland, KS

Home | Current Version | Previous Version | Text Only | Print | Product List | Glossary On
Versions: 1 2 3 4 5 6 7 8 9 10 11 12 13 14 15 16 17 18
000
FTUS43 KGLD 121900 AAA
TAFGLD
TAF AMD
KGLD 121900Z 1219/1318 30010KT P6SM SKC
      TEMPO 1219/1222 30012G20KT
     FM131600 34025G35KT P6SM SCT150=

USA.gov is the U.S. government's official web portal to all federal, state and local government web resources and services.